createdAt,value
2022-12-20T00:02:12.998Z,1.58
2022-12-20T00:04:39.311Z,1.77
2022-12-20T00:07:05.579Z,1.52
2022-12-20T00:09:31.897Z,1.60
2022-12-20T00:11:58.580Z,2.10
2022-12-20T00:14:24.843Z,2.33
2022-12-20T00:16:51.176Z,1.73
2022-12-20T00:19:17.602Z,1.70
2022-12-20T00:21:43.879Z,1.63
2022-12-20T00:24:10.324Z,1.30
2022-12-20T00:26:37.963Z,1.42
2022-12-20T00:29:05.072Z,1.75
2022-12-20T00:31:31.887Z,1.33
2022-12-20T00:33:58.981Z,1.05
2022-12-20T00:36:27.107Z,1.45
2022-12-20T00:38:54.635Z,1.70
2022-12-20T00:41:22.086Z,1.42
2022-12-20T00:43:48.513Z,1.33
2022-12-20T00:46:15.634Z,1.40
2022-12-20T00:48:41.976Z,1.30
2022-12-20T00:51:09.809Z,1.92
2022-12-20T00:53:36.654Z,1.90
2022-12-20T00:56:03.222Z,1.63
2022-12-20T00:58:29.501Z,1.90
2022-12-20T01:00:56.841Z,1.55
2022-12-20T01:03:24.539Z,1.67
2022-12-20T01:05:55.326Z,1.30
2022-12-20T01:08:22.589Z,1.42
2022-12-20T01:10:59.313Z,1.70
2022-12-20T01:13:25.989Z,1.88
2022-12-20T01:15:52.253Z,1.48
2022-12-20T01:18:18.567Z,1.40
2022-12-20T01:20:44.905Z,1.27
2022-12-20T01:23:11.188Z,1.60
2022-12-20T01:25:37.526Z,1.65
2022-12-20T01:28:03.882Z,1.90
2022-12-20T01:30:30.253Z,1.60
2022-12-20T01:32:56.589Z,1.42
2022-12-20T01:35:22.863Z,1.38
2022-12-20T01:37:49.098Z,1.90
2022-12-20T01:40:15.659Z,1.25
2022-12-20T01:42:41.930Z,1.50
2022-12-20T01:45:13.051Z,1.98
2022-12-20T01:47:39.808Z,1.38
2022-12-20T01:50:06.763Z,1.48
2022-12-20T01:52:35.724Z,1.88
2022-12-20T01:55:31.318Z,1.30
2022-12-20T01:57:59.894Z,1.77
2022-12-20T02:00:26.628Z,1.88
2022-12-20T02:02:54.206Z,2.28
2022-12-20T02:05:21.606Z,2.17
2022-12-20T02:07:49.989Z,1.95
2022-12-20T02:10:17.013Z,2.10
2022-12-20T02:12:44.310Z,2.03
2022-12-20T02:15:10.604Z,1.42
2022-12-20T02:17:39.829Z,2.10
2022-12-20T02:20:12.214Z,2.10
2022-12-20T02:22:57.292Z,1.60
2022-12-20T02:25:38.902Z,1.90
2022-12-20T02:28:23.600Z,2.28
2022-12-20T02:30:54.871Z,1.52
2022-12-20T02:33:22.055Z,1.80
2022-12-20T02:35:48.320Z,1.70
2022-12-20T02:38:44.687Z,2.15
2022-12-20T02:41:22.159Z,1.52
2022-12-20T02:44:08.446Z,1.75
2022-12-20T02:46:36.120Z,1.52
2022-12-20T02:49:04.993Z,1.75
2022-12-20T02:51:32.474Z,1.38
2022-12-20T02:53:59.858Z,1.98
2022-12-20T02:56:32.931Z,2.00
2022-12-20T02:59:06.035Z,1.92
2022-12-20T03:01:37.681Z,2.45
2022-12-20T03:04:04.751Z,1.67
2022-12-20T03:06:31.285Z,1.80
2022-12-20T03:08:57.656Z,1.70
2022-12-20T03:11:23.968Z,1.92
2022-12-20T03:13:50.583Z,1.88
2022-12-20T03:16:16.856Z,2.22
2022-12-20T03:18:45.317Z,2.00
2022-12-20T03:21:11.875Z,2.00
2022-12-20T03:23:38.173Z,2.15
2022-12-20T03:26:04.457Z,1.88
2022-12-20T03:28:30.759Z,2.10
2022-12-20T03:30:57.126Z,1.33
2022-12-20T03:33:23.439Z,1.20
2022-12-20T03:35:49.759Z,1.95
2022-12-20T03:38:16.045Z,2.13
2022-12-20T03:40:42.452Z,2.25
2022-12-20T03:43:08.689Z,2.05
2022-12-20T03:45:35.012Z,1.88
2022-12-20T03:48:01.239Z,1.63
2022-12-20T03:50:27.631Z,1.95
2022-12-20T03:52:53.882Z,1.85
2022-12-20T03:55:20.182Z,1.95
2022-12-20T03:57:46.461Z,1.52
2022-12-20T04:00:13.086Z,2.25
2022-12-20T04:02:39.583Z,1.55
2022-12-20T04:05:06.340Z,1.80
2022-12-20T04:07:32.622Z,2.17
2022-12-20T04:09:58.916Z,1.42
2022-12-20T04:12:25.188Z,1.55
2022-12-20T04:14:51.484Z,1.88
2022-12-20T04:17:17.852Z,1.60
2022-12-20T04:19:44.286Z,1.90
2022-12-20T04:22:10.692Z,2.13
2022-12-20T04:24:37.835Z,1.50
2022-12-20T04:27:04.206Z,1.88
2022-12-20T04:29:30.516Z,1.95
2022-12-20T04:31:56.837Z,1.70
2022-12-20T04:34:23.148Z,1.95
2022-12-20T04:36:49.406Z,1.70
2022-12-20T04:39:15.674Z,1.33
2022-12-20T04:41:41.904Z,2.00
2022-12-20T04:44:08.156Z,1.30
2022-12-20T04:46:34.656Z,1.48
2022-12-20T04:49:01.019Z,1.30
2022-12-20T04:51:27.974Z,1.45
2022-12-20T04:53:54.805Z,1.38
2022-12-20T04:56:22.977Z,1.63
2022-12-20T04:58:50.371Z,1.90
2022-12-20T05:01:16.965Z,1.52
2022-12-20T05:03:43.413Z,1.95
2022-12-20T05:06:10.219Z,1.85
2022-12-20T05:08:36.564Z,2.05
2022-12-20T05:11:03.251Z,1.65
2022-12-20T05:13:29.554Z,2.00
2022-12-20T05:15:56.156Z,1.45
2022-12-20T05:18:22.995Z,1.77
2022-12-20T05:21:09.783Z,1.73
2022-12-20T05:23:55.202Z,1.58
2022-12-20T05:26:22.447Z,1.80
2022-12-20T05:28:48.761Z,1.73
2022-12-20T05:31:15.282Z,1.30
2022-12-20T05:33:41.676Z,1.45
2022-12-20T05:36:08.192Z,1.55
2022-12-20T05:38:34.603Z,1.67
2022-12-20T05:41:01.193Z,1.95
2022-12-20T05:43:27.545Z,2.25
2022-12-20T05:45:53.874Z,2.03
2022-12-20T05:48:20.561Z,1.52
2022-12-20T05:50:47.140Z,1.98
2022-12-20T05:53:14.606Z,2.00
2022-12-20T05:55:59.452Z,1.83
2022-12-20T05:58:25.885Z,1.73
2022-12-20T06:00:52.183Z,1.60
2022-12-20T06:03:18.916Z,1.85
2022-12-20T06:05:45.542Z,2.10
2022-12-20T06:08:12.351Z,1.80
2022-12-20T06:10:40.053Z,1.73
2022-12-20T06:13:06.596Z,1.48
2022-12-20T06:15:32.891Z,1.73
2022-12-20T06:17:59.296Z,1.92
2022-12-20T06:20:25.652Z,1.70
2022-12-20T06:22:52.696Z,1.45
2022-12-20T06:25:19.276Z,2.13
2022-12-20T06:27:45.743Z,1.65
2022-12-20T06:30:12.451Z,1.40
2022-12-20T06:32:39.502Z,1.55
2022-12-20T06:35:06.293Z,2.00
2022-12-20T06:37:32.753Z,1.40
2022-12-20T06:40:00.119Z,1.80
2022-12-20T06:42:26.693Z,1.67
2022-12-20T06:44:53.127Z,2.10
2022-12-20T06:47:19.614Z,1.83
2022-12-20T06:49:46.037Z,1.65
2022-12-20T06:52:12.540Z,1.95
2022-12-20T06:54:38.863Z,1.50
2022-12-20T06:57:06.801Z,1.58
2022-12-20T06:59:33.206Z,1.42
2022-12-20T07:01:59.959Z,1.30
2022-12-20T07:04:26.620Z,1.60
2022-12-20T07:06:53.039Z,1.27
2022-12-20T07:09:19.418Z,1.40
2022-12-20T07:11:45.911Z,1.23
2022-12-20T07:14:12.265Z,1.50
2022-12-20T07:16:38.760Z,1.17
2022-12-20T07:19:05.544Z,1.13
2022-12-20T07:21:31.920Z,1.25
2022-12-20T07:23:58.350Z,1.10
2022-12-20T07:26:24.696Z,1.20
2022-12-20T07:28:51.324Z,1.17
2022-12-20T07:31:17.796Z,1.08
2022-12-20T07:33:44.315Z,1.30
2022-12-20T07:36:11.771Z,1.00
2022-12-20T07:38:38.473Z,1.25
2022-12-20T07:41:08.346Z,1.60
2022-12-20T07:43:34.978Z,1.38
2022-12-20T07:46:01.510Z,1.10
2022-12-20T07:48:28.078Z,0.82
2022-12-20T07:50:57.876Z,1.05
2022-12-20T07:53:24.866Z,1.45
2022-12-20T07:55:51.717Z,1.40
2022-12-20T07:58:18.837Z,1.27
2022-12-20T08:00:45.240Z,1.00
2022-12-20T08:03:11.676Z,1.13
2022-12-20T08:05:41.087Z,1.42
2022-12-20T08:08:08.254Z,1.48
2022-12-20T08:10:35.025Z,0.98
2022-12-20T08:13:01.436Z,1.38
2022-12-20T08:15:28.569Z,1.02
2022-12-20T08:17:54.942Z,1.08
2022-12-20T08:20:21.348Z,1.10
2022-12-20T08:22:47.765Z,0.90
2022-12-20T08:25:14.149Z,1.38
2022-12-20T08:27:40.496Z,1.88
2022-12-20T08:30:08.398Z,1.15
2022-12-20T08:32:34.992Z,1.25
2022-12-20T08:35:01.327Z,1.33
2022-12-20T08:37:27.737Z,1.52
2022-12-20T08:39:54.058Z,1.17
2022-12-20T08:42:20.428Z,1.05
2022-12-20T08:44:46.749Z,1.20
2022-12-20T08:47:13.162Z,1.10
2022-12-20T08:49:45.641Z,0.85
2022-12-20T08:52:13.915Z,1.52
2022-12-20T08:54:40.253Z,1.08
2022-12-20T08:57:06.609Z,1.23
2022-12-20T08:59:32.979Z,1.38
2022-12-20T09:01:59.507Z,1.20
2022-12-20T09:04:25.919Z,1.35
2022-12-20T09:06:52.321Z,1.33
2022-12-20T09:09:18.815Z,1.40
2022-12-20T09:11:45.169Z,1.30
2022-12-20T09:14:11.697Z,1.27
2022-12-20T09:16:38.128Z,1.35
2022-12-20T09:19:06.461Z,1.13
2022-12-20T09:21:34.061Z,1.25
2022-12-20T09:24:00.541Z,1.20
2022-12-20T09:26:27.135Z,1.27
2022-12-20T09:28:54.026Z,1.58
2022-12-20T09:31:22.303Z,1.20
2022-12-20T09:33:48.764Z,1.08
2022-12-20T09:36:17.670Z,1.20
2022-12-20T09:38:44.426Z,1.40
2022-12-20T09:41:38.156Z,1.70
2022-12-20T09:44:14.094Z,1.20
2022-12-20T09:46:41.192Z,1.90
2022-12-20T09:49:11.220Z,1.30
2022-12-20T09:51:43.531Z,1.40
2022-12-20T09:54:12.857Z,1.45
2022-12-20T09:56:47.325Z,1.55
2022-12-20T09:59:19.788Z,1.25
2022-12-20T10:01:47.175Z,1.38
2022-12-20T10:04:24.620Z,1.23
2022-12-20T10:07:03.700Z,2.33
2022-12-20T10:09:30.069Z,1.77
2022-12-20T10:12:11.596Z,1.73
2022-12-20T10:14:50.393Z,1.75
2022-12-20T10:17:32.773Z,2.28
2022-12-20T10:20:08.505Z,2.08
2022-12-20T10:22:38.174Z,2.50
2022-12-20T10:25:20.013Z,1.95
2022-12-20T10:27:47.433Z,1.85
2022-12-20T10:30:21.079Z,1.67
2022-12-20T10:32:48.667Z,1.75
2022-12-20T10:35:14.996Z,1.48
2022-12-20T10:38:13.816Z,1.70
2022-12-20T10:43:36.483Z,1.52
2022-12-20T10:46:06.740Z,2.08
2022-12-20T10:48:34.405Z,1.90
2022-12-20T10:51:02.205Z,2.05
2022-12-20T10:53:29.613Z,1.65
2022-12-20T10:56:12.163Z,1.60
2022-12-20T10:58:38.586Z,1.73
2022-12-20T11:01:19.136Z,1.10
2022-12-20T11:04:05.865Z,1.35
2022-12-20T11:06:38.565Z,1.67
2022-12-20T11:09:23.513Z,2.20
2022-12-20T11:11:57.641Z,2.10
2022-12-20T11:14:24.043Z,1.85
2022-12-20T11:16:51.296Z,2.17
2022-12-20T11:19:23.637Z,1.88
2022-12-20T11:22:16.834Z,1.85
2022-12-20T11:24:52.922Z,2.00
2022-12-20T11:27:22.439Z,2.05
2022-12-20T11:29:56.015Z,2.13
2022-12-20T11:32:33.963Z,1.88
2022-12-20T11:35:09.910Z,1.88
2022-12-20T11:38:04.172Z,2.28
2022-12-20T11:40:41.325Z,1.95
2022-12-20T11:43:16.854Z,1.40
2022-12-20T11:45:53.127Z,2.30
2022-12-20T11:48:30.836Z,1.95
2022-12-20T11:51:06.736Z,2.42
2022-12-20T11:53:43.509Z,2.38
2022-12-20T11:56:12.889Z,2.45
2022-12-20T11:58:47.382Z,2.53
2022-12-20T12:01:16.577Z,2.28
2022-12-20T12:03:53.992Z,2.03
2022-12-20T12:06:28.822Z,1.85
2022-12-20T12:09:04.306Z,2.22
2022-12-20T12:12:05.216Z,2.40
2022-12-20T12:14:28.941Z,2.28
2022-12-20T12:16:57.591Z,2.65
2022-12-20T12:19:26.769Z,2.55
2022-12-20T12:21:57.313Z,2.38
2022-12-20T12:24:29.207Z,2.17
2022-12-20T12:26:56.143Z,1.98
2022-12-20T12:29:23.098Z,2.28
2022-12-20T12:32:02.800Z,2.42
2022-12-20T12:34:41.542Z,5.43
2022-12-20T12:37:25.941Z,2.38
2022-12-20T12:40:12.523Z,3.22
2022-12-20T12:42:57.856Z,2.30
2022-12-20T12:45:27.188Z,2.40
2022-12-20T12:47:58.451Z,2.60
2022-12-20T12:50:30.385Z,2.70
2022-12-20T12:52:58.389Z,2.53
2022-12-20T12:55:45.503Z,2.17
2022-12-20T12:58:23.963Z,2.53
2022-12-20T13:00:50.510Z,3.55
2022-12-20T13:03:34.636Z,3.65
2022-12-20T13:06:19.454Z,3.30
2022-12-20T13:09:08.879Z,2.28
2022-12-20T13:11:46.226Z,3.08
2022-12-20T13:14:25.308Z,2.65
2022-12-20T13:17:18.278Z,2.65
2022-12-20T13:19:53.832Z,40.00
2022-12-20T13:22:21.907Z,2.83
2022-12-20T13:24:53.170Z,2.50
2022-12-20T13:27:24.223Z,11.05
2022-12-20T13:29:53.367Z,2.85
2022-12-20T13:32:38.639Z,3.45
2022-12-20T13:35:25.033Z,3.17
2022-12-20T13:38:05.886Z,2.38
2022-12-20T13:43:02.412Z,2.80
2022-12-20T13:45:29.188Z,2.73
2022-12-20T13:48:05.183Z,3.30
2022-12-20T13:50:40.682Z,3.40
2022-12-20T13:53:15.937Z,3.25
2022-12-20T13:55:45.335Z,3.58
2022-12-20T13:58:28.064Z,2.83
2022-12-20T14:01:02.632Z,2.90
2022-12-20T14:03:30.405Z,2.67
2022-12-20T14:06:04.632Z,3.15
2022-12-20T14:08:33.003Z,3.00
2022-12-20T14:11:12.388Z,3.40
2022-12-20T14:13:39.133Z,2.83
2022-12-20T14:16:16.076Z,2.67
2022-12-20T14:18:42.626Z,2.50
2022-12-20T14:21:10.024Z,3.90
2022-12-20T14:23:47.841Z,3.53
2022-12-20T14:26:40.576Z,3.40
2022-12-20T14:29:10.951Z,3.00
2022-12-20T14:31:42.624Z,3.72
2022-12-20T14:34:10.437Z,3.75
2022-12-20T14:36:37.809Z,3.35
2022-12-20T14:39:39.683Z,3.38
2022-12-20T14:42:09.757Z,3.17
2022-12-20T14:44:36.246Z,3.30
2022-12-20T14:47:16.546Z,2.88
2022-12-20T14:49:52.325Z,3.58
2022-12-20T14:52:26.118Z,4.45
2022-12-20T14:55:07.797Z,3.85
2022-12-20T14:57:35.946Z,4.28
2022-12-20T15:00:14.312Z,4.90
2022-12-20T15:02:40.893Z,3.70
2022-12-20T15:05:27.402Z,4.57
2022-12-20T15:07:53.724Z,3.22
2022-12-20T15:10:20.094Z,4.00
2022-12-20T15:12:46.439Z,3.70
2022-12-20T15:15:28.646Z,3.25
2022-12-20T15:17:55.367Z,3.30
2022-12-20T15:20:21.786Z,3.95
2022-12-20T15:22:48.186Z,3.78
2022-12-20T15:28:13.460Z,3.97
2022-12-20T15:30:39.946Z,4.07
2022-12-20T15:33:06.716Z,3.70
2022-12-20T15:35:33.662Z,4.70
2022-12-20T15:38:00.112Z,4.32
2022-12-20T15:40:26.425Z,3.92
2022-12-20T15:42:52.758Z,4.75
2022-12-20T15:45:19.167Z,3.88
2022-12-20T15:47:45.575Z,3.90
2022-12-20T15:50:12.058Z,4.43
2022-12-20T15:52:38.444Z,4.15
2022-12-20T15:55:05.094Z,3.40
2022-12-20T15:57:32.682Z,4.05
2022-12-20T16:00:01.679Z,3.78
2022-12-20T16:02:30.833Z,4.32
2022-12-20T16:04:58.774Z,3.95
2022-12-20T16:07:25.337Z,4.03
2022-12-20T16:09:51.832Z,4.00
2022-12-20T16:12:21.312Z,4.78
2022-12-20T16:14:48.138Z,5.13
2022-12-20T16:17:14.681Z,4.72
2022-12-20T16:19:42.413Z,4.97
2022-12-20T16:22:14.434Z,5.40
2022-12-20T16:24:40.805Z,6.05
2022-12-20T16:27:07.874Z,6.50
2022-12-20T16:29:34.192Z,4.63
2022-12-20T16:32:00.615Z,5.55
2022-12-20T16:34:27.160Z,4.57
2022-12-20T16:36:53.605Z,4.97
2022-12-20T16:39:19.978Z,3.50
2022-12-20T16:41:46.389Z,3.92
2022-12-20T16:44:13.791Z,4.50
2022-12-20T16:46:40.254Z,5.00
2022-12-20T16:49:06.777Z,4.15
2022-12-20T16:51:40.185Z,4.00
2022-12-20T16:54:19.378Z,4.40
2022-12-20T16:56:47.422Z,5.22
2022-12-20T16:59:19.849Z,4.25
2022-12-20T17:01:48.928Z,4.85
2022-12-20T17:04:16.599Z,4.82
2022-12-20T17:06:43.457Z,3.80
2022-12-20T17:09:10.085Z,5.20
2022-12-20T17:11:36.503Z,5.88
2022-12-20T17:14:06.318Z,4.80
2022-12-20T17:16:37.816Z,4.10
2022-12-20T17:19:05.194Z,4.28
2022-12-20T17:24:35.597Z,4.53
2022-12-20T17:27:02.061Z,5.07
2022-12-20T17:29:28.448Z,5.53
2022-12-20T17:31:55.051Z,4.13
2022-12-20T17:34:21.423Z,5.80
2022-12-20T17:36:48.663Z,5.28
2022-12-20T17:39:15.339Z,6.13
2022-12-20T17:41:44.880Z,5.32
2022-12-20T17:44:17.300Z,5.07
2022-12-20T17:46:43.655Z,4.97
2022-12-20T17:49:10.426Z,5.97
2022-12-20T17:51:36.837Z,7.38
2022-12-20T17:54:03.367Z,5.78
2022-12-20T17:56:34.443Z,4.97
2022-12-20T17:59:01.578Z,4.85
2022-12-20T18:01:29.373Z,5.70
2022-12-20T18:04:05.798Z,6.40
2022-12-20T18:06:33.343Z,6.05
2022-12-20T18:09:00.149Z,5.95
2022-12-20T18:11:27.653Z,5.68
2022-12-20T18:13:55.210Z,6.57
2022-12-20T18:16:23.076Z,6.45
2022-12-20T18:18:49.505Z,7.63
2022-12-20T18:21:17.185Z,7.20
2022-12-20T18:23:44.116Z,6.38
2022-12-20T18:26:36.820Z,7.78
2022-12-20T18:29:03.224Z,7.10
2022-12-20T18:31:31.157Z,7.65
2022-12-20T18:33:58.759Z,7.78
2022-12-20T18:36:29.270Z,7.88
2022-12-20T18:38:56.538Z,6.63
2022-12-20T18:41:24.221Z,7.60
2022-12-20T18:43:50.967Z,8.63
2022-12-20T18:46:18.719Z,8.60
2022-12-20T18:48:45.628Z,7.70
2022-12-20T18:51:16.091Z,8.63
2022-12-20T18:53:43.581Z,8.63
2022-12-20T18:56:11.924Z,8.48
2022-12-20T18:58:41.159Z,9.13
2022-12-20T19:01:10.233Z,8.32
2022-12-20T19:03:36.696Z,9.43
2022-12-20T19:06:03.221Z,8.93
2022-12-20T19:08:29.764Z,8.32
2022-12-20T19:10:59.894Z,8.05
2022-12-20T19:13:26.277Z,9.47
2022-12-20T19:16:00.234Z,8.57
2022-12-20T19:18:26.499Z,9.32
2022-12-20T19:20:52.778Z,9.90
2022-12-20T19:23:20.661Z,8.52
2022-12-20T19:25:46.980Z,13.45
2022-12-20T19:28:13.529Z,10.02
2022-12-20T19:30:40.038Z,10.80
2022-12-20T19:33:06.512Z,9.73
2022-12-20T19:35:54.983Z,8.93
2022-12-20T19:38:19.536Z,9.07
2022-12-20T19:40:50.748Z,9.20
2022-12-20T19:43:17.066Z,11.18
2022-12-20T19:45:43.503Z,8.95
2022-12-20T19:48:10.261Z,14.52
2022-12-20T19:50:36.775Z,9.75
2022-12-20T19:53:03.199Z,10.10
2022-12-20T19:55:29.618Z,10.73
2022-12-20T19:57:56.010Z,9.27
2022-12-20T20:00:22.361Z,10.93
2022-12-20T20:02:48.890Z,12.10
2022-12-20T20:05:15.662Z,11.63
2022-12-20T20:07:42.628Z,11.27
2022-12-20T20:10:09.729Z,10.85
2022-12-20T20:12:38.213Z,10.30
2022-12-20T20:15:04.821Z,11.35
2022-12-20T20:17:31.127Z,11.43
2022-12-20T20:19:57.494Z,10.70
2022-12-20T20:22:23.879Z,10.75
2022-12-20T20:24:50.704Z,12.45
2022-12-20T20:27:17.081Z,11.38
2022-12-20T20:29:43.463Z,12.18
2022-12-20T20:32:09.788Z,12.63
2022-12-20T20:34:36.079Z,11.68
2022-12-20T20:37:02.746Z,11.95
2022-12-20T20:39:29.121Z,12.80
2022-12-20T20:41:55.403Z,12.45
2022-12-20T20:44:21.730Z,11.73
2022-12-20T20:46:48.146Z,11.93
2022-12-20T20:49:14.496Z,11.32
2022-12-20T20:51:40.735Z,11.20
2022-12-20T20:54:07.036Z,12.35
2022-12-20T20:56:33.433Z,20.02
2022-12-20T20:59:05.272Z,18.50
2022-12-20T21:01:33.646Z,29.60
2022-12-20T21:04:00.269Z,17.65
2022-12-20T21:06:42.372Z,22.23
2022-12-20T21:09:08.955Z,14.05
2022-12-20T21:11:36.901Z,11.05
2022-12-20T21:14:03.525Z,12.00
2022-12-20T21:16:30.153Z,12.73
2022-12-20T21:18:57.624Z,13.82
2022-12-20T21:21:24.430Z,12.90
2022-12-20T21:23:50.778Z,13.00
2022-12-20T21:26:18.077Z,12.10
2022-12-20T21:28:45.357Z,13.68
2022-12-20T21:31:13.359Z,13.57
2022-12-20T21:33:39.843Z,13.15
2022-12-20T21:36:07.827Z,13.45
2022-12-20T21:38:34.483Z,13.85
2022-12-20T21:41:01.508Z,13.55
2022-12-20T21:43:28.054Z,12.10
2022-12-20T21:45:54.345Z,14.10
2022-12-20T21:48:20.739Z,13.00
2022-12-20T21:50:47.164Z,13.70
2022-12-20T21:53:19.190Z,12.55
2022-12-20T21:55:45.883Z,13.10
2022-12-20T21:58:12.177Z,13.55
2022-12-20T22:00:38.438Z,12.75
2022-12-20T22:03:04.885Z,12.75
2022-12-20T22:05:31.263Z,14.43
2022-12-20T22:07:57.553Z,12.15
2022-12-20T22:10:23.823Z,12.48
2022-12-20T22:12:50.150Z,12.77
2022-12-20T22:15:16.482Z,11.57
2022-12-20T22:17:42.771Z,14.82
2022-12-20T22:20:09.110Z,13.82
2022-12-20T22:22:35.426Z,12.55
2022-12-20T22:25:01.754Z,14.20
2022-12-20T22:27:28.140Z,13.05
2022-12-20T22:29:54.414Z,13.77
2022-12-20T22:32:20.792Z,11.82
2022-12-20T22:34:47.072Z,13.20
2022-12-20T22:37:13.397Z,12.02
2022-12-20T22:39:39.675Z,13.13
2022-12-20T22:42:05.958Z,13.35
2022-12-20T22:44:32.209Z,11.55
2022-12-20T22:46:58.497Z,12.55
2022-12-20T22:49:24.735Z,12.13
2022-12-20T22:52:02.697Z,12.98
2022-12-20T22:54:32.820Z,13.60
2022-12-20T22:56:59.047Z,13.07
2022-12-20T22:59:25.303Z,13.35
2022-12-20T23:01:51.795Z,13.77
2022-12-20T23:04:18.291Z,11.38
2022-12-20T23:06:44.551Z,13.18
2022-12-20T23:09:10.895Z,12.48
2022-12-20T23:11:55.992Z,12.73
2022-12-20T23:14:41.314Z,12.88
2022-12-20T23:17:08.936Z,12.40
2022-12-20T23:19:53.674Z,12.77
2022-12-20T23:22:39.350Z,13.20
2022-12-20T23:25:13.129Z,12.73
2022-12-20T23:27:40.123Z,11.80
2022-12-20T23:30:07.025Z,13.38
2022-12-20T23:32:33.295Z,12.32
2022-12-20T23:34:59.537Z,12.70
2022-12-20T23:37:25.940Z,13.40
2022-12-20T23:39:53.184Z,13.52
2022-12-20T23:42:19.551Z,12.30
2022-12-20T23:44:45.800Z,11.60
2022-12-20T23:47:18.542Z,12.90
2022-12-20T23:49:45.184Z,10.90
2022-12-20T23:52:11.479Z,11.93
2022-12-20T23:54:37.710Z,12.60
2022-12-20T23:57:04.012Z,12.57
2022-12-20T23:59:30.273Z,13.23
